sensor_id;sensor_type;location;lat;lon;timestamp;pressure;altitude;pressure_sealevel;temperature;humidity
5284;BME280;15377;48.540;9.268;2022-08-25T00:00:18;97521.94;;;16.72;100.00
5284;BME280;15377;48.540;9.268;2022-08-25T00:02:44;97518.41;;;16.60;100.00
5284;BME280;15377;48.540;9.268;2022-08-25T00:05:10;97515.69;;;16.49;100.00
5284;BME280;15377;48.540;9.268;2022-08-25T00:07:35;97513.91;;;16.46;100.00
5284;BME280;15377;48.540;9.268;2022-08-25T00:10:01;97515.16;;;16.45;100.00
5284;BME280;15377;48.540;9.268;2022-08-25T00:12:26;97519.22;;;16.44;100.00
5284;BME280;15377;48.540;9.268;2022-08-25T00:14:52;97523.25;;;16.43;100.00
5284;BME280;15377;48.540;9.268;2022-08-25T00:17:17;97521.47;;;16.29;100.00
5284;BME280;15377;48.540;9.268;2022-08-25T00:19:43;97520.97;;;16.31;100.00
5284;BME280;15377;48.540;9.268;2022-08-25T00:22:09;97519.94;;;16.34;100.00
5284;BME280;15377;48.540;9.268;2022-08-25T00:24:34;97520.97;;;16.58;100.00
5284;BME280;15377;48.540;9.268;2022-08-25T00:27:00;97515.13;;;16.67;100.00
5284;BME280;15377;48.540;9.268;2022-08-25T00:29:27;97519.69;;;16.59;100.00
5284;BME280;15377;48.540;9.268;2022-08-25T00:31:54;97520.22;;;16.47;100.00
5284;BME280;15377;48.540;9.268;2022-08-25T00:34:23;97521.75;;;16.42;100.00
5284;BME280;15377;48.540;9.268;2022-08-25T00:36:49;97514.66;;;16.47;100.00
5284;BME280;15377;48.540;9.268;2022-08-25T00:39:17;97511.13;;;16.46;100.00
5284;BME280;15377;48.540;9.268;2022-08-25T00:41:45;97516.94;;;16.54;100.00
5284;BME280;15377;48.540;9.268;2022-08-25T00:44:13;97509.81;;;16.64;100.00
5284;BME280;15377;48.540;9.268;2022-08-25T00:46:52;97506.78;;;16.67;100.00
5284;BME280;15377;48.540;9.268;2022-08-25T00:49:36;97511.56;;;16.78;100.00
5284;BME280;15377;48.540;9.268;2022-08-25T00:52:31;97518.06;;;16.91;100.00
5284;BME280;15377;48.540;9.268;2022-08-25T00:57:35;97510.47;;;16.97;100.00
5284;BME280;15377;48.540;9.268;2022-08-25T01:00:11;97503.63;;;16.98;100.00
5284;BME280;15377;48.540;9.268;2022-08-25T01:02:37;97506.94;;;16.91;100.00
5284;BME280;15377;48.540;9.268;2022-08-25T01:05:03;97495.31;;;16.87;100.00
5284;BME280;15377;48.540;9.268;2022-08-25T01:07:29;97507.00;;;16.75;100.00
5284;BME280;15377;48.540;9.268;2022-08-25T01:09:54;97493.66;;;16.57;100.00
5284;BME280;15377;48.540;9.268;2022-08-25T01:12:20;97485.38;;;16.29;100.00
5284;BME280;15377;48.540;9.268;2022-08-25T01:14:47;97496.75;;;16.20;100.00
5284;BME280;15377;48.540;9.268;2022-08-25T01:17:13;97482.63;;;16.13;100.00
5284;BME280;15377;48.540;9.268;2022-08-25T01:19:38;97481.63;;;16.05;100.00
5284;BME280;15377;48.540;9.268;2022-08-25T01:22:04;97466.50;;;16.06;100.00
5284;BME280;15377;48.540;9.268;2022-08-25T01:25:01;97483.13;;;16.00;100.00
5284;BME280;15377;48.540;9.268;2022-08-25T01:27:28;97473.31;;;15.88;100.00
5284;BME280;15377;48.540;9.268;2022-08-25T01:29:53;97487.19;;;15.88;100.00
5284;BME280;15377;48.540;9.268;2022-08-25T01:32:19;97492.22;;;15.84;100.00
5284;BME280;15377;48.540;9.268;2022-08-25T01:34:44;97489.94;;;15.88;100.00
5284;BME280;15377;48.540;9.268;2022-08-25T01:37:13;97477.09;;;15.74;100.00
5284;BME280;15377;48.540;9.268;2022-08-25T01:39:40;97494.00;;;15.87;100.00
5284;BME280;15377;48.540;9.268;2022-08-25T01:44:36;97495.75;;;15.96;100.00
5284;BME280;15377;48.540;9.268;2022-08-25T01:47:03;97473.31;;;15.88;100.00
5284;BME280;15377;48.540;9.268;2022-08-25T01:49:29;97486.41;;;16.04;100.00
5284;BME280;15377;48.540;9.268;2022-08-25T01:52:00;97485.91;;;16.00;100.00
5284;BME280;15377;48.540;9.268;2022-08-25T01:54:26;97471.28;;;15.89;100.00
5284;BME280;15377;48.540;9.268;2022-08-25T01:56:52;97487.94;;;15.94;100.00
5284;BME280;15377;48.540;9.268;2022-08-25T01:59:19;97483.88;;;15.84;100.00
5284;BME280;15377;48.540;9.268;2022-08-25T02:01:45;97480.38;;;15.84;100.00
5284;BME280;15377;48.540;9.268;2022-08-25T02:04:10;97479.59;;;15.78;100.00
5284;BME280;15377;48.540;9.268;2022-08-25T02:06:36;97485.91;;;15.67;100.00
5284;BME280;15377;48.540;9.268;2022-08-25T02:09:08;97486.16;;;15.42;100.00
5284;BME280;15377;48.540;9.268;2022-08-25T02:11:36;97492.97;;;15.46;100.00
5284;BME280;15377;48.540;9.268;2022-08-25T02:14:02;97495.44;;;15.44;100.00
5284;BME280;15377;48.540;9.268;2022-08-25T02:16:30;97493.69;;;15.36;100.00
5284;BME280;15377;48.540;9.268;2022-08-25T02:18:56;97494.72;;;15.38;100.00
5284;BME280;15377;48.540;9.268;2022-08-25T02:21:23;97499.00;;;15.50;100.00
5284;BME280;15377;48.540;9.268;2022-08-25T02:23:49;97481.63;;;15.61;100.00
5284;BME280;15377;48.540;9.268;2022-08-25T02:26:15;97485.94;;;15.78;100.00
5284;BME280;15377;48.540;9.268;2022-08-25T02:28:43;97495.00;;;15.90;100.00
5284;BME280;15377;48.540;9.268;2022-08-25T02:31:12;97483.16;;;15.84;100.00
5284;BME280;15377;48.540;9.268;2022-08-25T02:33:37;97470.78;;;15.79;100.00
5284;BME280;15377;48.540;9.268;2022-08-25T02:36:03;97485.91;;;15.89;100.00
5284;BME280;15377;48.540;9.268;2022-08-25T02:38:29;97487.44;;;15.90;100.00
5284;BME280;15377;48.540;9.268;2022-08-25T02:40:56;97485.66;;;15.93;100.00
5284;BME280;15377;48.540;9.268;2022-08-25T02:43:23;97478.88;;;15.77;100.00
5284;BME280;15377;48.540;9.268;2022-08-25T02:45:50;97471.00;;;15.65;100.00
5284;BME280;15377;48.540;9.268;2022-08-25T02:48:16;97482.13;;;15.65;100.00
5284;BME280;15377;48.540;9.268;2022-08-25T02:50:46;97482.13;;;15.54;100.00
5284;BME280;15377;48.540;9.268;2022-08-25T02:53:12;97471.03;;;15.43;100.00
5284;BME280;15377;48.540;9.268;2022-08-25T02:55:38;97488.63;;;15.34;100.00
5284;BME280;15377;48.540;9.268;2022-08-25T02:58:04;97482.28;;;15.17;100.00
5284;BME280;15377;48.540;9.268;2022-08-25T03:00:29;97485.03;;;15.06;100.00
5284;BME280;15377;48.540;9.268;2022-08-25T03:02:55;97491.31;;;15.07;100.00
5284;BME280;15377;48.540;9.268;2022-08-25T03:05:20;97480.22;;;15.01;100.00
5284;BME280;15377;48.540;9.268;2022-08-25T03:07:46;97489.00;;;15.00;100.00
5284;BME280;15377;48.540;9.268;2022-08-25T03:10:14;97489.78;;;15.00;100.00
5284;BME280;15377;48.540;9.268;2022-08-25T03:12:41;97491.78;;;14.94;100.00
5284;BME280;15377;48.540;9.268;2022-08-25T03:15:10;97489.25;;;14.96;100.00
5284;BME280;15377;48.540;9.268;2022-08-25T03:17:36;97497.81;;;14.98;100.00
5284;BME280;15377;48.540;9.268;2022-08-25T03:20:04;97492.00;;;14.91;100.00
5284;BME280;15377;48.540;9.268;2022-08-25T03:22:30;97488.22;;;14.88;100.00
5284;BME280;15377;48.540;9.268;2022-08-25T03:24:55;97483.16;;;14.81;100.00
5284;BME280;15377;48.540;9.268;2022-08-25T03:27:40;97484.16;;;14.78;100.00
5284;BME280;15377;48.540;9.268;2022-08-25T03:30:06;97482.09;;;14.73;100.00
5284;BME280;15377;48.540;9.268;2022-08-25T03:32:32;97491.66;;;14.73;100.00
5284;BME280;15377;48.540;9.268;2022-08-25T03:34:58;97491.13;;;14.63;100.00
5284;BME280;15377;48.540;9.268;2022-08-25T03:37:25;97487.06;;;14.59;100.00
5284;BME280;15377;48.540;9.268;2022-08-25T03:39:50;97470.19;;;14.57;100.00
5284;BME280;15377;48.540;9.268;2022-08-25T03:42:16;97486.09;;;14.62;100.00
5284;BME280;15377;48.540;9.268;2022-08-25T03:44:42;97484.03;;;14.57;100.00
5284;BME280;15377;48.540;9.268;2022-08-25T03:47:07;97480.28;;;14.60;100.00
5284;BME280;15377;48.540;9.268;2022-08-25T03:49:32;97472.97;;;14.57;100.00
5284;BME280;15377;48.540;9.268;2022-08-25T03:51:58;97467.63;;;14.48;100.00
5284;BME280;15377;48.540;9.268;2022-08-25T03:54:24;97473.88;;;14.43;100.00
5284;BME280;15377;48.540;9.268;2022-08-25T03:56:50;97469.84;;;14.38;100.00
5284;BME280;15377;48.540;9.268;2022-08-25T03:59:16;97468.59;;;14.39;100.00
5284;BME280;15377;48.540;9.268;2022-08-25T04:01:43;97472.13;;;14.40;100.00
5284;BME280;15377;48.540;9.268;2022-08-25T04:04:10;97468.81;;;14.36;100.00
5284;BME280;15377;48.540;9.268;2022-08-25T04:06:38;97467.75;;;14.28;100.00
5284;BME280;15377;48.540;9.268;2022-08-25T04:09:03;97468.75;;;14.25;100.00
5284;BME280;15377;48.540;9.268;2022-08-25T04:11:29;97461.25;;;14.31;100.00
5284;BME280;15377;48.540;9.268;2022-08-25T04:13:56;97460.25;;;14.34;100.00
5284;BME280;15377;48.540;9.268;2022-08-25T04:16:33;97473.84;;;14.32;100.00
5284;BME280;15377;48.540;9.268;2022-08-25T04:19:00;97479.38;;;14.32;100.00
5284;BME280;15377;48.540;9.268;2022-08-25T04:21:27;97479.19;;;14.41;100.00
5284;BME280;15377;48.540;9.268;2022-08-25T04:23:54;97467.75;;;14.28;100.00
5284;BME280;15377;48.540;9.268;2022-08-25T04:26:23;97488.47;;;14.38;100.00
5284;BME280;15377;48.540;9.268;2022-08-25T04:28:49;97476.94;;;14.45;100.00
5284;BME280;15377;48.540;9.268;2022-08-25T04:31:16;97472.50;;;14.64;100.00
5284;BME280;15377;48.540;9.268;2022-08-25T04:33:42;97477.03;;;14.67;100.00
5284;BME280;15377;48.540;9.268;2022-08-25T04:36:09;97482.06;;;14.63;100.00
5284;BME280;15377;48.540;9.268;2022-08-25T04:38:37;97487.81;;;14.54;100.00
5284;BME280;15377;48.540;9.268;2022-08-25T04:41:03;97473.88;;;14.43;100.00
5284;BME280;15377;48.540;9.268;2022-08-25T04:43:30;97486.00;;;14.45;100.00
5284;BME280;15377;48.540;9.268;2022-08-25T04:45:56;97481.44;;;14.37;100.00
5284;BME280;15377;48.540;9.268;2022-08-25T04:48:22;97489.16;;;14.27;100.00
5284;BME280;15377;48.540;9.268;2022-08-25T04:50:47;97465.13;;;14.13;100.00
5284;BME280;15377;48.540;9.268;2022-08-25T04:53:13;97481.50;;;14.17;100.00
5284;BME280;15377;48.540;9.268;2022-08-25T04:55:40;97481.25;;;14.15;100.00
5284;BME280;15377;48.540;9.268;2022-08-25T04:58:06;97472.69;;;14.13;100.00
5284;BME280;15377;48.540;9.268;2022-08-25T05:00:33;97488.41;;;14.27;100.00
5284;BME280;15377;48.540;9.268;2022-08-25T05:02:59;97483.38;;;14.25;100.00
5284;BME280;15377;48.540;9.268;2022-08-25T05:05:25;97457.59;;;14.14;100.00
5284;BME280;15377;48.540;9.268;2022-08-25T05:07:50;97480.69;;;14.42;100.00
5284;BME280;15377;48.540;9.268;2022-08-25T05:10:15;97482.31;;;14.65;100.00
5284;BME280;15377;48.540;9.268;2022-08-25T05:12:41;97483.69;;;14.85;100.00
5284;BME280;15377;48.540;9.268;2022-08-25T05:15:06;97473.06;;;14.78;100.00
5284;BME280;15377;48.540;9.268;2022-08-25T05:17:50;97458.19;;;14.76;100.00
5284;BME280;15377;48.540;9.268;2022-08-25T05:20:16;97463.03;;;14.97;100.00
5284;BME280;15377;48.540;9.268;2022-08-25T05:22:43;97461.09;;;15.14;100.00
5284;BME280;15377;48.540;9.268;2022-08-25T05:25:10;97473.72;;;15.26;100.00
5284;BME280;15377;48.540;9.268;2022-08-25T05:27:35;97462.63;;;15.26;100.00
5284;BME280;15377;48.540;9.268;2022-08-25T05:30:01;97466.97;;;15.44;100.00
5284;BME280;15377;48.540;9.268;2022-08-25T05:32:26;97456.13;;;15.51;100.00
5284;BME280;15377;48.540;9.268;2022-08-25T05:34:51;97466.50;;;15.78;100.00
5284;BME280;15377;48.540;9.268;2022-08-25T05:37:17;97470.03;;;15.90;100.00
5284;BME280;15377;48.540;9.268;2022-08-25T05:39:42;97466.50;;;16.06;100.00
5284;BME280;15377;48.540;9.268;2022-08-25T05:42:07;97445.03;;;16.17;100.00
5284;BME280;15377;48.540;9.268;2022-08-25T05:44:33;97456.84;;;16.40;100.00
5284;BME280;15377;48.540;9.268;2022-08-25T05:46:58;97439.41;;;16.39;100.00
5284;BME280;15377;48.540;9.268;2022-08-25T05:49:23;97438.88;;;16.57;100.00
5284;BME280;15377;48.540;9.268;2022-08-25T05:51:49;97456.97;;;16.80;100.00
5284;BME280;15377;48.540;9.268;2022-08-25T05:54:14;97444.06;;;16.88;100.00
5284;BME280;15377;48.540;9.268;2022-08-25T05:56:40;97454.81;;;17.08;100.00
5284;BME280;15377;48.540;9.268;2022-08-25T05:59:05;97462.28;;;17.24;100.00
5284;BME280;15377;48.540;9.268;2022-08-25T06:01:30;97461.25;;;17.38;100.00
5284;BME280;15377;48.540;9.268;2022-08-25T06:04:15;97464.19;;;17.51;100.00
5284;BME280;15377;48.540;9.268;2022-08-25T06:06:42;97456.06;;;17.53;100.00
5284;BME280;15377;48.540;9.268;2022-08-25T06:09:08;97457.72;;;17.73;100.00
5284;BME280;15377;48.540;9.268;2022-08-25T06:11:37;97446.28;;;17.76;100.00
5284;BME280;15377;48.540;9.268;2022-08-25T06:14:04;97466.09;;;17.97;100.00
5284;BME280;15377;48.540;9.268;2022-08-25T06:16:29;97478.38;;;18.12;100.00
5284;BME280;15377;48.540;9.268;2022-08-25T06:18:55;97463.16;;;18.13;100.00
5284;BME280;15377;48.540;9.268;2022-08-25T06:21:20;97469.09;;;18.28;100.00
5284;BME280;15377;48.540;9.268;2022-08-25T06:23:46;97480.91;;;18.40;100.00
5284;BME280;15377;48.540;9.268;2022-08-25T06:26:12;97480.53;;;18.54;100.00
5284;BME280;15377;48.540;9.268;2022-08-25T06:28:38;97467.25;;;18.60;100.00
5284;BME280;15377;48.540;9.268;2022-08-25T06:31:04;97462.63;;;18.68;100.00
5284;BME280;15377;48.540;9.268;2022-08-25T06:33:29;97476.84;;;18.88;100.00
5284;BME280;15377;48.540;9.268;2022-08-25T06:35:55;97480.00;;;18.98;100.00
5284;BME280;15377;48.540;9.268;2022-08-25T06:38:22;97486.13;;;19.15;100.00
5284;BME280;15377;48.540;9.268;2022-08-25T06:40:48;97480.44;;;19.26;100.00
5284;BME280;15377;48.540;9.268;2022-08-25T06:43:16;97491.66;;;19.39;100.00
5284;BME280;15377;48.540;9.268;2022-08-25T06:45:41;97489.53;;;19.45;100.00
5284;BME280;15377;48.540;9.268;2022-08-25T06:48:08;97475.28;;;19.48;100.00
5284;BME280;15377;48.540;9.268;2022-08-25T06:50:34;97469.63;;;19.54;100.00
5284;BME280;15377;48.540;9.268;2022-08-25T06:53:01;97481.66;;;19.80;100.00
5284;BME280;15377;48.540;9.268;2022-08-25T06:55:27;97470.38;;;19.86;100.00
5284;BME280;15377;48.540;9.268;2022-08-25T06:57:53;97473.22;;;19.99;100.00
5284;BME280;15377;48.540;9.268;2022-08-25T07:00:19;97469.00;;;20.11;100.00
5284;BME280;15377;48.540;9.268;2022-08-25T07:02:44;97478.06;;;20.30;100.00
5284;BME280;15377;48.540;9.268;2022-08-25T07:05:11;97475.31;;;20.43;100.00
5284;BME280;15377;48.540;9.268;2022-08-25T07:07:36;97462.41;;;20.53;100.00
5284;BME280;15377;48.540;9.268;2022-08-25T07:10:02;97461.31;;;20.56;100.00
5284;BME280;15377;48.540;9.268;2022-08-25T07:12:28;97482.63;;;20.72;100.00
5284;BME280;15377;48.540;9.268;2022-08-25T07:14:53;97482.22;;;20.81;100.00
5284;BME280;15377;48.540;9.268;2022-08-25T07:17:20;97477.06;;;20.98;100.00
5284;BME280;15377;48.540;9.268;2022-08-25T07:19:45;97475.97;;;21.14;100.00
5284;BME280;15377;48.540;9.268;2022-08-25T07:22:11;97473.38;;;21.16;100.00
5284;BME280;15377;48.540;9.268;2022-08-25T07:24:36;97463.66;;;21.17;100.00
5284;BME280;15377;48.540;9.268;2022-08-25T07:27:02;97471.06;;;21.40;100.00
5284;BME280;15377;48.540;9.268;2022-08-25T07:29:28;97462.53;;;21.46;100.00
5284;BME280;15377;48.540;9.268;2022-08-25T07:31:54;97471.13;;;21.48;100.00
5284;BME280;15377;48.540;9.268;2022-08-25T07:34:19;97467.47;;;21.53;100.00
5284;BME280;15377;48.540;9.268;2022-08-25T07:37:03;97459.06;;;21.53;100.00
5284;BME280;15377;48.540;9.268;2022-08-25T07:39:31;97459.84;;;21.74;100.00
5284;BME280;15377;48.540;9.268;2022-08-25T07:41:56;97469.31;;;21.84;100.00
5284;BME280;15377;48.540;9.268;2022-08-25T07:44:22;97463.75;;;21.91;100.00
5284;BME280;15377;48.540;9.268;2022-08-25T07:46:49;97461.25;;;22.01;100.00
5284;BME280;15377;48.540;9.268;2022-08-25T07:49:15;97465.81;;;22.11;100.00
5284;BME280;15377;48.540;9.268;2022-08-25T07:51:40;97466.31;;;22.23;100.00
5284;BME280;15377;48.540;9.268;2022-08-25T07:54:06;97472.09;;;22.25;100.00
5284;BME280;15377;48.540;9.268;2022-08-25T07:56:32;97476.81;;;22.30;100.00
5284;BME280;15377;48.540;9.268;2022-08-25T07:58:57;97468.63;;;22.32;100.00
5284;BME280;15377;48.540;9.268;2022-08-25T08:01:23;97468.94;;;22.49;100.00
5284;BME280;15377;48.540;9.268;2022-08-25T08:03:49;97475.56;;;22.59;100.00
5284;BME280;15377;48.540;9.268;2022-08-25T08:06:19;97472.81;;;22.66;100.00
5284;BME280;15377;48.540;9.268;2022-08-25T08:08:46;97469.66;;;22.70;100.00
5284;BME280;15377;48.540;9.268;2022-08-25T08:11:23;97474.34;;;22.75;100.00
5284;BME280;15377;48.540;9.268;2022-08-25T08:13:50;97464.84;;;22.78;100.00
5284;BME280;15377;48.540;9.268;2022-08-25T08:16:17;97467.44;;;22.76;100.00
5284;BME280;15377;48.540;9.268;2022-08-25T08:18:44;97474.06;;;22.86;100.00
5284;BME280;15377;48.540;9.268;2022-08-25T08:21:35;97464.56;;;22.96;100.00
5284;BME280;15377;48.540;9.268;2022-08-25T08:24:00;97460.09;;;23.00;100.00
5284;BME280;15377;48.540;9.268;2022-08-25T08:26:26;97456.38;;;23.05;100.00
5284;BME280;15377;48.540;9.268;2022-08-25T08:28:53;97460.19;;;23.15;100.00
5284;BME280;15377;48.540;9.268;2022-08-25T08:31:19;97459.47;;;23.15;100.00
5284;BME280;15377;48.540;9.268;2022-08-25T08:33:46;97462.88;;;23.28;100.00
5284;BME280;15377;48.540;9.268;2022-08-25T08:36:12;97464.13;;;23.20;100.00
5284;BME280;15377;48.540;9.268;2022-08-25T08:38:39;97461.97;;;23.33;100.00
5284;BME280;15377;48.540;9.268;2022-08-25T08:41:13;97454.88;;;23.47;100.00
5284;BME280;15377;48.540;9.268;2022-08-25T08:52:17;97440.19;;;23.77;100.00
5284;BME280;15377;48.540;9.268;2022-08-25T08:54:44;97458.22;;;23.96;100.00
5284;BME280;15377;48.540;9.268;2022-08-25T08:57:15;97422.22;;;23.95;100.00
5284;BME280;15377;48.540;9.268;2022-08-25T08:59:53;97444.00;;;24.32;100.00
5284;BME280;15377;48.540;9.268;2022-08-25T09:02:42;97450.72;;;24.51;100.00
5284;BME280;15377;48.540;9.268;2022-08-25T09:05:12;97451.50;;;24.59;100.00
5284;BME280;15377;48.540;9.268;2022-08-25T09:08:00;97454.84;;;24.73;100.00
5284;BME280;15377;48.540;9.268;2022-08-25T09:10:36;97432.50;;;24.82;100.00
5284;BME280;15377;48.540;9.268;2022-08-25T09:13:22;97440.69;;;24.95;100.00
5284;BME280;15377;48.540;9.268;2022-08-25T09:16:02;97430.22;;;24.88;100.00
5284;BME280;15377;48.540;9.268;2022-08-25T09:21:49;97432.91;;;25.18;100.00
5284;BME280;15377;48.540;9.268;2022-08-25T09:24:39;97434.91;;;25.40;100.00
5284;BME280;15377;48.540;9.268;2022-08-25T09:27:20;97432.91;;;25.65;100.00
5284;BME280;15377;48.540;9.268;2022-08-25T09:32:40;97435.13;;;26.23;100.00
5284;BME280;15377;48.540;9.268;2022-08-25T09:35:09;97432.72;;;26.44;100.00
5284;BME280;15377;48.540;9.268;2022-08-25T09:37:37;97426.47;;;26.87;100.00
5284;BME280;15377;48.540;9.268;2022-08-25T09:40:02;97439.78;;;27.98;100.00
5284;BME280;15377;48.540;9.268;2022-08-25T09:42:48;97439.03;;;29.45;97.92
5284;BME280;15377;48.540;9.268;2022-08-25T09:45:15;97429.34;;;30.38;87.88
5284;BME280;15377;48.540;9.268;2022-08-25T09:47:42;97441.41;;;30.99;79.12
5284;BME280;15377;48.540;9.268;2022-08-25T09:50:14;97435.28;;;31.68;72.69
5284;BME280;15377;48.540;9.268;2022-08-25T09:52:40;97431.94;;;32.61;70.49
5284;BME280;15377;48.540;9.268;2022-08-25T09:57:51;97419.53;;;33.77;57.44
5284;BME280;15377;48.540;9.268;2022-08-25T10:00:24;97418.69;;;33.50;57.53
5284;BME280;15377;48.540;9.268;2022-08-25T10:05:31;97422.63;;;35.01;55.03
5284;BME280;15377;48.540;9.268;2022-08-25T10:08:03;97418.31;;;35.71;51.87
5284;BME280;15377;48.540;9.268;2022-08-25T10:10:35;97410.03;;;35.93;48.47
5284;BME280;15377;48.540;9.268;2022-08-25T10:13:12;97401.28;;;36.35;47.26
5284;BME280;15377;48.540;9.268;2022-08-25T10:15:38;97392.84;;;37.03;45.92
5284;BME280;15377;48.540;9.268;2022-08-25T10:18:23;97400.53;;;36.98;41.90
5284;BME280;15377;48.540;9.268;2022-08-25T10:21:10;97380.69;;;36.87;41.32
5284;BME280;15377;48.540;9.268;2022-08-25T10:23:56;97393.28;;;37.48;41.68
5284;BME280;15377;48.540;9.268;2022-08-25T10:26:48;97392.34;;;37.59;37.95
5284;BME280;15377;48.540;9.268;2022-08-25T10:34:42;97385.00;;;37.56;39.79
5284;BME280;15377;48.540;9.268;2022-08-25T10:43:00;97360.59;;;37.92;37.00
5284;BME280;15377;48.540;9.268;2022-08-25T10:45:37;97366.09;;;38.62;37.31
5284;BME280;15377;48.540;9.268;2022-08-25T10:50:47;97364.78;;;39.70;35.68
5284;BME280;15377;48.540;9.268;2022-08-25T10:53:39;97355.56;;;39.76;35.33
5284;BME280;15377;48.540;9.268;2022-08-25T10:56:17;97351.66;;;39.89;35.53
5284;BME280;15377;48.540;9.268;2022-08-25T10:59:07;97350.28;;;39.92;33.10
5284;BME280;15377;48.540;9.268;2022-08-25T11:04:34;97345.53;;;41.02;32.49
5284;BME280;15377;48.540;9.268;2022-08-25T11:07:06;97341.41;;;41.39;31.80
5284;BME280;15377;48.540;9.268;2022-08-25T11:09:37;97342.41;;;40.92;31.13
5284;BME280;15377;48.540;9.268;2022-08-25T11:12:08;97329.81;;;41.37;29.66
5284;BME280;15377;48.540;9.268;2022-08-25T11:14:44;97327.47;;;41.02;30.96
5284;BME280;15377;48.540;9.268;2022-08-25T11:17:26;97335.00;;;40.60;31.11
5284;BME280;15377;48.540;9.268;2022-08-25T11:20:04;97334.81;;;38.72;32.68
5284;BME280;15377;48.540;9.268;2022-08-25T11:22:40;97317.59;;;39.60;32.13
5284;BME280;15377;48.540;9.268;2022-08-25T11:27:48;97325.59;;;39.85;31.75
5284;BME280;15377;48.540;9.268;2022-08-25T11:30:17;97316.09;;;40.55;31.90
5284;BME280;15377;48.540;9.268;2022-08-25T11:32:47;97316.19;;;40.57;30.64
5284;BME280;15377;48.540;9.268;2022-08-25T11:35:16;97319.75;;;40.55;31.13
5284;BME280;15377;48.540;9.268;2022-08-25T11:38:05;97315.75;;;40.43;29.97
5284;BME280;15377;48.540;9.268;2022-08-25T11:46:35;97312.06;;;37.63;32.91
5284;BME280;15377;48.540;9.268;2022-08-25T11:51:43;97305.44;;;35.76;37.89
5284;BME280;15377;48.540;9.268;2022-08-25T11:55:43;97303.22;;;34.59;39.71
5284;BME280;15377;48.540;9.268;2022-08-25T11:57:23;97308.94;;;34.18;40.74
5284;BME280;15377;48.540;9.268;2022-08-25T12:02:42;97307.09;;;33.07;43.38
5284;BME280;15377;48.540;9.268;2022-08-25T12:13:49;97307.84;;;32.12;46.32
5284;BME280;15377;48.540;9.268;2022-08-25T12:16:38;97306.63;;;31.81;45.61
5284;BME280;15377;48.540;9.268;2022-08-25T12:21:57;97294.19;;;31.30;45.75
5284;BME280;15377;48.540;9.268;2022-08-25T12:27:19;97293.88;;;31.15;47.24
5284;BME280;15377;48.540;9.268;2022-08-25T12:29:52;97280.97;;;30.91;49.42
5284;BME280;15377;48.540;9.268;2022-08-25T12:32:22;97278.28;;;31.04;48.43
5284;BME280;15377;48.540;9.268;2022-08-25T12:37:32;97274.81;;;31.06;47.28
5284;BME280;15377;48.540;9.268;2022-08-25T12:40:03;97278.66;;;31.10;51.13
5284;BME280;15377;48.540;9.268;2022-08-25T12:42:37;97285.50;;;31.17;50.11
5284;BME280;15377;48.540;9.268;2022-08-25T12:47:45;97286.13;;;30.83;54.41
5284;BME280;15377;48.540;9.268;2022-08-25T12:50:34;97290.94;;;30.80;54.13
5284;BME280;15377;48.540;9.268;2022-08-25T12:53:14;97272.50;;;30.81;49.53
5284;BME280;15377;48.540;9.268;2022-08-25T12:55:47;97278.88;;;31.03;52.98
5284;BME280;15377;48.540;9.268;2022-08-25T12:58:14;97262.75;;;31.17;50.35
5284;BME280;15377;48.540;9.268;2022-08-25T13:13:04;97283.25;;;31.94;48.07
5284;BME280;15377;48.540;9.268;2022-08-25T13:15:43;97277.25;;;32.12;48.14
5284;BME280;15377;48.540;9.268;2022-08-25T13:20:38;97272.13;;;31.75;47.16
5284;BME280;15377;48.540;9.268;2022-08-25T13:23:03;97264.19;;;31.73;47.67
5284;BME280;15377;48.540;9.268;2022-08-25T13:25:29;97265.31;;;31.80;45.91
5284;BME280;15377;48.540;9.268;2022-08-25T13:28:00;97262.44;;;31.80;48.09
5284;BME280;15377;48.540;9.268;2022-08-25T13:30:33;97253.66;;;31.99;50.04
5284;BME280;15377;48.540;9.268;2022-08-25T13:32:59;97246.69;;;32.13;50.36
5284;BME280;15377;48.540;9.268;2022-08-25T13:35:47;97243.25;;;32.03;46.43
5284;BME280;15377;48.540;9.268;2022-08-25T13:38:15;97255.75;;;31.98;47.20
5284;BME280;15377;48.540;9.268;2022-08-25T13:40:40;97245.38;;;31.80;45.53
5284;BME280;15377;48.540;9.268;2022-08-25T13:43:09;97244.84;;;31.49;50.01
5284;BME280;15377;48.540;9.268;2022-08-25T13:45:46;97238.75;;;31.08;51.14
5284;BME280;15377;48.540;9.268;2022-08-25T13:48:14;97246.00;;;31.00;50.84
5284;BME280;15377;48.540;9.268;2022-08-25T13:51:06;97240.94;;;30.98;51.68
5284;BME280;15377;48.540;9.268;2022-08-25T13:53:33;97233.63;;;30.84;52.56
5284;BME280;15377;48.540;9.268;2022-08-25T13:56:01;97241.41;;;30.95;52.24
5284;BME280;15377;48.540;9.268;2022-08-25T13:58:32;97232.25;;;30.85;51.29
5284;BME280;15377;48.540;9.268;2022-08-25T14:03:36;97235.22;;;31.31;54.32
5284;BME280;15377;48.540;9.268;2022-08-25T14:06:05;97237.06;;;31.38;49.51
5284;BME280;15377;48.540;9.268;2022-08-25T14:08:34;97229.16;;;31.48;48.76
5284;BME280;15377;48.540;9.268;2022-08-25T14:11:10;97232.88;;;31.85;50.97
5284;BME280;15377;48.540;9.268;2022-08-25T14:13:38;97235.34;;;31.79;48.35
5284;BME280;15377;48.540;9.268;2022-08-25T14:16:18;97228.06;;;31.76;46.74
5284;BME280;15377;48.540;9.268;2022-08-25T14:18:49;97229.19;;;31.71;46.31
5284;BME280;15377;48.540;9.268;2022-08-25T14:21:23;97229.78;;;31.69;48.88
5284;BME280;15377;48.540;9.268;2022-08-25T14:23:51;97228.91;;;31.90;50.33
5284;BME280;15377;48.540;9.268;2022-08-25T14:26:17;97229.41;;;31.63;46.07
5284;BME280;15377;48.540;9.268;2022-08-25T14:28:42;97224.34;;;31.50;47.07
5284;BME280;15377;48.540;9.268;2022-08-25T14:31:10;97233.09;;;31.66;49.74
5284;BME280;15377;48.540;9.268;2022-08-25T14:33:46;97208.88;;;31.42;46.78
5284;BME280;15377;48.540;9.268;2022-08-25T14:36:13;97222.34;;;31.64;48.46
5284;BME280;15377;48.540;9.268;2022-08-25T14:38:39;97207.66;;;31.56;48.89
5284;BME280;15377;48.540;9.268;2022-08-25T14:41:05;97209.25;;;31.71;46.99
5284;BME280;15377;48.540;9.268;2022-08-25T14:43:31;97218.53;;;31.83;47.93
5284;BME280;15377;48.540;9.268;2022-08-25T14:45:56;97220.75;;;31.84;49.14